Unbenanntes Dokument
Flugplatz Bielefeld Platzwetter

 

Aktuelles Platzwetter am Flugplatz Bielefeld EDLI

23.04.18 ,19:23 Uhr

METAR EDLI 231923Z 29005KT 9999 11/05 Q1016

 

Windwerte

 

Wolkenuntergrenzen

Wind aktuell:280 ° mit 5 kt
Wind 10 min Extrem:
260 ° bis 310 ° mit 4 kt bis 7 kt
Seitenwindkomponente: 0.4 kt
Wolkengrenze 1:
Wolkengrenze 2:
Wolkengrenze 3:

Webcam

Temperatur

       

Sichtweite:

20.000 Meter

12.0 °C
Taupunkt: 5.3 °C
Luftfeuchtigkeit: 63 %

Luftdruck:

QNH: 1016 hPa (30.00 in Hg)
QFE: 1000 hPa (29.53 in Hg)

Diese Daten werden automatisch ermittelt bzw. übertragen und sind nicht geprüft. Für die Richtigkeit wird daher keine Gewähr übernommen. Sie ersetzen im übrigen nicht die Flugwetterberatung. Alle Zeitangaben beziehen sich auf UTC. Die Seite wird einmal die Minute aktualisiert! Sollten Sie ein ältere Seite haben, so drücken Sie bitte auf den Reload Button Ihres Browsers!